»·PEaware :: UPS224 KLAS-KSFO

UPS224 :: KLAS-KSFO

FLIGHT INFORMATION

Flight Status: Arrived
Operator:
United Parcel Service
More flights by this operator :: More flights under this callsign
Pilot: Matteo S. (9898)
Aircraft: Unknown
(B77F)
More flights by this aircraft type
Origin: KLAS McCarran Intl
United States
Destination: KSFO San Francisco Intl
United States
More flights between these airports :: More routes between these airports
Route: SHEAD9 KENNO RUSME DYAMD2
File this flight plan on PilotEdge
Remarks:
Altitude:
(Current/Filed)
36,000ft
Speed:
(Current/Filed)
460kts
Departed: 27-Feb-16 06:29 PM
Arrived: 27-Feb-16 07:36 PM
Distance/Time
Traveled:
360nm/1:07
Distance/Time
To Go:
Arrived

Flight Plot

Page will automatically refresh every two minutes.


Map Options




Map Legend


Flown Route
Filed Route
Departure Airport
Arrival Airport
Navaid (VOR, NDB)
Fix

Horizontal Profiles

Position Reports

Time Latitude Longitude Heading Altitude Ground
Speed
27-Feb-16 17:46 36.081114 -115.129250 90 2054ft 0kts
27-Feb-16 17:47 36.081114 -115.129250 90 2054ft 0kts
27-Feb-16 17:48 36.081114 -115.129250 90 2054ft 0kts
27-Feb-16 17:49 36.081114 -115.129250 90 2054ft 0kts
27-Feb-16 17:50 36.081114 -115.129250 90 2054ft 0kts
27-Feb-16 17:51 36.081114 -115.129250 90 2054ft 0kts
27-Feb-16 17:52 36.081114 -115.129250 90 2054ft 0kts
27-Feb-16 17:53 36.081114 -115.129250 90 2054ft 0kts
27-Feb-16 17:54 36.081114 -115.129250 90 2054ft 0kts
27-Feb-16 17:55 36.081114 -115.129250 90 2054ft 0kts
27-Feb-16 17:56 36.081114 -115.129250 90 2054ft 0kts
27-Feb-16 17:57 36.081114 -115.129250 90 2054ft 0kts
27-Feb-16 17:58 36.081114 -115.129250 90 2054ft 0kts
27-Feb-16 17:59 36.081114 -115.129250 90 2054ft 0kts
27-Feb-16 18:00 36.081114 -115.129250 90 2054ft 0kts
27-Feb-16 18:01 36.081114 -115.129250 90 2054ft 0kts
27-Feb-16 18:02 36.081114 -115.129250 90 2054ft 0kts
27-Feb-16 18:03 36.081114 -115.129250 90 2054ft 0kts
27-Feb-16 18:04 36.081117 -115.129723 90 2055ft 2kts
27-Feb-16 18:05 36.081347 -115.130381 174 2057ft 2kts
27-Feb-16 18:06 36.081409 -115.130387 175 2057ft 0kts
27-Feb-16 18:07 36.081409 -115.130387 175 2057ft 0kts
27-Feb-16 18:08 36.081409 -115.130387 175 2057ft 0kts
27-Feb-16 18:09 36.081409 -115.130387 175 2057ft 0kts
27-Feb-16 18:10 36.080431 -115.130343 181 2059ft 5kts
27-Feb-16 18:11 36.078201 -115.130333 179 2060ft 8kts
27-Feb-16 18:12 36.077569 -115.131823 269 2066ft 8kts
27-Feb-16 18:13 36.077571 -115.135798 270 2076ft 11kts
27-Feb-16 18:14 36.077557 -115.140193 269 2090ft 18kts
27-Feb-16 18:15 36.077656 -115.144775 276 2104ft 8kts
27-Feb-16 18:16 36.077974 -115.149337 274 2118ft 14kts
27-Feb-16 18:17 36.078088 -115.152743 270 2132ft 13kts
27-Feb-16 18:18 36.078084 -115.158820 269 2155ft 19kts
27-Feb-16 18:19 36.078072 -115.163480 270 2170ft 8kts
27-Feb-16 18:20 36.078073 -115.163763 270 2171ft 2kts
27-Feb-16 18:21 36.080073 -115.164251 24 2166ft 34kts
27-Feb-16 18:22 36.120377 -115.156538 329 4569ft 200kts
27-Feb-16 18:23 36.119639 -115.229838 251 7158ft 254kts
27-Feb-16 18:24 36.080515 -115.303420 202 9068ft 304kts
27-Feb-16 18:25 36.003675 -115.343709 204 9033ft 298kts
27-Feb-16 18:26 35.927093 -115.383590 204 9039ft 298kts
27-Feb-16 18:27 35.882114 -115.465600 273 11070ft 340kts
27-Feb-16 18:28 35.888861 -115.586323 273 11049ft 352kts
27-Feb-16 18:29 35.891485 -115.708062 272 12803ft 360kts
27-Feb-16 18:30 35.893605 -115.833041 272 15963ft 372kts
27-Feb-16 18:31 35.901597 -115.961533 290 19326ft 384kts
27-Feb-16 18:32 35.970643 -116.060902 320 22717ft 399kts
27-Feb-16 18:33 36.053776 -116.153125 316 23061ft 402kts
27-Feb-16 18:34 36.137017 -116.249127 315 26080ft 416kts
27-Feb-16 18:35 36.223183 -116.349029 315 29096ft 435kts
27-Feb-16 18:36 36.297739 -116.435756 315 31547ft 449kts
27-Feb-16 18:37 36.404918 -116.560854 315 35154ft 460kts
27-Feb-16 18:38 36.481284 -116.650276 315 36058ft 449kts
27-Feb-16 18:39 36.573383 -116.753837 323 36056ft 450kts
27-Feb-16 18:40 36.679884 -116.835655 325 36063ft 449kts
27-Feb-16 18:41 36.785998 -116.916557 325 36059ft 448kts
27-Feb-16 18:42 36.892129 -116.997661 325 36101ft 447kts
27-Feb-16 18:43 36.997732 -117.078623 325 36160ft 447kts
27-Feb-16 18:44 37.104001 -117.160364 325 36158ft 447kts
27-Feb-16 18:45 37.210247 -117.242371 325 36165ft 455kts
27-Feb-16 18:46 37.315078 -117.329298 317 36158ft 443kts
27-Feb-16 18:47 37.410116 -117.430238 318 36147ft 453kts
27-Feb-16 18:48 37.488563 -117.549066 293 36128ft 444kts
27-Feb-16 18:49 37.509076 -117.702226 278 36122ft 449kts
27-Feb-16 18:50 37.522061 -117.859212 278 36103ft 450kts
27-Feb-16 18:51 37.534543 -118.016236 278 36100ft 450kts
27-Feb-16 18:52 37.546718 -118.172260 278 36098ft 450kts
27-Feb-16 18:53 37.558797 -118.329762 278 36097ft 450kts
27-Feb-16 18:54 37.570591 -118.486333 278 36170ft 447kts
27-Feb-16 18:55 37.582086 -118.641616 278 36235ft 444kts
27-Feb-16 18:56 37.593662 -118.794999 277 36256ft 444kts
27-Feb-16 18:57 37.604809 -118.950634 277 36256ft 444kts
27-Feb-16 18:58 37.615632 -119.105174 277 36254ft 444kts
27-Feb-16 18:59 37.626329 -119.260863 277 36253ft 444kts
27-Feb-16 19:00 37.636796 -119.416246 277 36251ft 444kts
27-Feb-16 19:01 37.647054 -119.571581 277 36238ft 444kts
27-Feb-16 19:02 37.657369 -119.726026 277 36180ft 441kts
27-Feb-16 19:03 37.667079 -119.877339 277 35102ft 416kts
27-Feb-16 19:04 37.675746 -120.016576 277 33318ft 386kts
27-Feb-16 19:05 37.683879 -120.149557 277 31311ft 375kts
27-Feb-16 19:06 37.691822 -120.281828 277 29257ft 381kts
27-Feb-16 19:07 37.697029 -120.413929 267 27162ft 375kts
27-Feb-16 19:08 37.682881 -120.542461 266 25042ft 364kts
27-Feb-16 19:09 37.668318 -120.666756 265 23245ft 355kts
27-Feb-16 19:10 37.654269 -120.787359 265 21600ft 346kts
27-Feb-16 19:11 37.640010 -120.905488 265 20048ft 336kts
27-Feb-16 19:12 37.625304 -121.020574 264 18530ft 328kts
27-Feb-16 19:13 37.610275 -121.132756 264 16911ft 321kts
27-Feb-16 19:14 37.595401 -121.242974 264 15406ft 315kts
27-Feb-16 19:15 37.582530 -121.351097 265 13979ft 309kts
27-Feb-16 19:16 37.570281 -121.456782 265 12581ft 296kts
27-Feb-16 19:17 37.558800 -121.555205 264 11291ft 273kts
27-Feb-16 19:18 37.544496 -121.648309 257 10060ft 264kts
27-Feb-16 19:19 37.524138 -121.736639 256 8878ft 262kts
27-Feb-16 19:20 37.503199 -121.824177 256 7687ft 259kts
27-Feb-16 19:21 37.493567 -121.911613 274 6551ft 252kts
27-Feb-16 19:22 37.498057 -121.999596 276 5477ft 250kts
27-Feb-16 19:23 37.502744 -122.082572 277 4146ft 229kts
27-Feb-16 19:24 37.527100 -122.151421 298 3611ft 207kts
27-Feb-16 19:25 37.551091 -122.208716 298 2618ft 160kts
27-Feb-16 19:26 37.569844 -122.253246 297 1829ft 138kts
27-Feb-16 19:27 37.587687 -122.295678 297 1122ft 136kts
27-Feb-16 19:28 37.605400 -122.337727 296 373ft 134kts
27-Feb-16 19:29 37.620118 -122.372893 297 26ft 39kts
27-Feb-16 19:30 37.622258 -122.375517 33 30ft 0kts
27-Feb-16 19:31 37.623824 -122.377976 297 32ft 12kts
27-Feb-16 19:32 37.625315 -122.381539 296 33ft 11kts
27-Feb-16 19:33 37.626904 -122.385325 298 30ft 12kts
27-Feb-16 19:34 37.628495 -122.389116 297 27ft 12kts
27-Feb-16 19:35 37.630271 -122.392249 337 27ft 11kts
27-Feb-16 19:36 37.632769 -122.391693 343 24ft 10kts
27-Feb-16 19:37 37.634536 -122.388851 64 21ft 13kts
27-Feb-16 19:38 37.636531 -122.388936 328 20ft 10kts
27-Feb-16 19:39 37.638344 -122.389621 55 20ft 0kts
27-Feb-16 19:40 37.638344 -122.389621 55 20ft 0kts
27-Feb-16 19:41 37.638344 -122.389621 55 20ft 0kts
27-Feb-16 19:42 37.638344 -122.389621 55 20ft 0kts
27-Feb-16 19:43 37.638344 -122.389621 55 20ft 0kts

Navigation Log

Ident Type
Flight plan parsing failed, navigation log unavailable